createdAt,value
2018-12-30T00:01:22.095Z,99.90
2018-12-30T00:03:52.537Z,99.90
2018-12-30T00:06:23.625Z,99.90
2018-12-30T00:08:54.478Z,99.90
2018-12-30T00:11:27.846Z,99.90
2018-12-30T00:13:58.326Z,99.90
2018-12-30T00:16:28.750Z,99.90
2018-12-30T00:18:59.137Z,99.90
2018-12-30T00:21:29.741Z,99.90
2018-12-30T00:24:00.139Z,99.90
2018-12-30T00:26:30.566Z,99.90
2018-12-30T00:29:01.317Z,99.90
2018-12-30T00:31:31.754Z,99.90
2018-12-30T00:34:02.287Z,99.90
2018-12-30T00:36:32.829Z,99.90
2018-12-30T00:39:03.382Z,99.90
2018-12-30T00:41:34.110Z,99.90
2018-12-30T00:44:04.459Z,99.90
2018-12-30T00:46:35.017Z,99.90
2018-12-30T00:49:05.481Z,99.90
2018-12-30T00:51:35.959Z,99.90
2018-12-30T00:54:06.646Z,99.90
2018-12-30T00:56:37.059Z,99.90
2018-12-30T00:59:07.509Z,99.90
2018-12-30T01:01:38.044Z,99.20
2018-12-30T01:04:08.475Z,98.10
2018-12-30T01:06:38.865Z,98.70
2018-12-30T01:09:09.349Z,98.20
2018-12-30T01:11:40.036Z,99.60
2018-12-30T01:14:10.473Z,99.90
2018-12-30T01:16:40.937Z,99.90
2018-12-30T01:19:11.289Z,99.90
2018-12-30T01:21:41.688Z,99.90
2018-12-30T01:24:12.022Z,99.90
2018-12-30T01:26:42.390Z,98.70
2018-12-30T01:29:12.802Z,98.10
2018-12-30T01:31:43.571Z,97.60
2018-12-30T01:34:13.988Z,96.30
2018-12-30T01:36:44.500Z,96.20
2018-12-30T01:39:14.866Z,98.70
2018-12-30T01:41:45.477Z,98.10
2018-12-30T01:44:15.813Z,99.30
2018-12-30T01:46:46.185Z,97.10
2018-12-30T01:49:16.637Z,90.80
2018-12-30T01:51:47.081Z,91.20
2018-12-30T01:54:17.911Z,90.30
2018-12-30T01:56:48.391Z,90.40
2018-12-30T01:59:18.810Z,91.20
2018-12-30T02:01:49.158Z,85.70
2018-12-30T02:04:19.539Z,89.80
2018-12-30T02:06:49.984Z,82.50
2018-12-30T02:09:20.346Z,83.80
2018-12-30T02:11:50.781Z,78.90
2018-12-30T02:14:21.127Z,83.70
2018-12-30T02:16:51.843Z,84.00
2018-12-30T02:19:22.227Z,80.60
2018-12-30T02:21:52.642Z,75.40
2018-12-30T02:24:23.024Z,70.30
2018-12-30T02:26:53.385Z,71.20
2018-12-30T02:29:23.741Z,68.40
2018-12-30T02:31:54.111Z,63.80
2018-12-30T02:34:24.554Z,62.20
2018-12-30T02:36:54.900Z,57.30
2018-12-30T02:39:25.255Z,58.70
2018-12-30T02:41:55.756Z,64.60
2018-12-30T02:44:26.167Z,59.30
2018-12-30T02:46:56.510Z,61.70
2018-12-30T02:49:26.902Z,58.70
2018-12-30T02:51:57.326Z,59.40
2018-12-30T02:54:27.684Z,58.50
2018-12-30T02:56:58.090Z,63.50
2018-12-30T02:59:28.509Z,53.60
2018-12-30T03:01:59.162Z,55.10
2018-12-30T03:04:29.643Z,54.50
2018-12-30T03:07:00.002Z,52.10
2018-12-30T03:09:30.373Z,51.50
2018-12-30T03:12:00.754Z,51.50
2018-12-30T03:14:31.181Z,59.00
2018-12-30T03:17:01.568Z,53.10
2018-12-30T03:19:32.009Z,48.90
2018-12-30T03:22:02.398Z,53.00
2018-12-30T03:24:32.746Z,46.60
2018-12-30T03:27:03.114Z,47.20
2018-12-30T03:29:33.446Z,46.20
2018-12-30T03:32:03.899Z,47.70
2018-12-30T03:34:34.258Z,41.40
2018-12-30T03:37:04.629Z,30.00
2018-12-30T03:39:34.985Z,37.60
2018-12-30T03:42:05.380Z,42.90
2018-12-30T03:44:35.750Z,43.40
2018-12-30T03:47:06.101Z,40.30
2018-12-30T03:49:36.474Z,35.10
2018-12-30T03:52:08.645Z,24.60
2018-12-30T03:54:38.873Z,35.20
2018-12-30T03:57:09.243Z,45.70
2018-12-30T03:59:39.617Z,38.80
2018-12-30T04:02:09.978Z,35.10
2018-12-30T04:04:40.333Z,34.40
2018-12-30T04:07:10.686Z,38.00
2018-12-30T04:09:41.046Z,37.20
2018-12-30T04:12:11.393Z,28.20
2018-12-30T04:14:41.871Z,40.40
2018-12-30T04:17:12.205Z,36.30
2018-12-30T04:19:42.580Z,44.40
2018-12-30T04:22:16.826Z,51.10
2018-12-30T04:24:44.973Z,49.90
2018-12-30T04:27:15.320Z,44.30
2018-12-30T04:29:45.732Z,45.80
2018-12-30T04:32:16.099Z,28.30
2018-12-30T04:34:46.454Z,32.30
2018-12-30T04:37:16.824Z,34.50
2018-12-30T04:39:47.216Z,38.50
2018-12-30T04:42:17.588Z,38.40
2018-12-30T04:44:48.054Z,36.40
2018-12-30T04:47:18.430Z,31.20
2018-12-30T04:49:48.836Z,28.00
2018-12-30T04:52:25.618Z,24.20
2018-12-30T04:54:51.245Z,21.10
2018-12-30T04:57:21.655Z,14.50
2018-12-30T04:59:52.014Z,14.80
2018-12-30T05:02:22.381Z,13.70
2018-12-30T05:04:52.742Z,12.20
2018-12-30T05:07:23.105Z,15.60
2018-12-30T05:09:53.464Z,26.10
2018-12-30T05:12:23.874Z,14.40
2018-12-30T05:14:54.237Z,21.10
2018-12-30T05:17:24.659Z,17.10
2018-12-30T05:19:55.223Z,14.50
2018-12-30T05:22:33.646Z,5.00
2018-12-30T05:24:57.606Z,14.40
2018-12-30T05:27:27.982Z,4.20
2018-12-30T05:29:58.324Z,5.00
2018-12-30T05:32:28.682Z,10.20
2018-12-30T05:34:59.074Z,4.10
2018-12-30T05:37:29.443Z,7.20
2018-12-30T05:39:59.781Z,6.10
2018-12-30T05:42:30.156Z,17.10
2018-12-30T05:45:00.510Z,17.60
2018-12-30T05:47:30.868Z,11.50
2018-12-30T05:50:01.222Z,3.00
2018-12-30T05:52:31.574Z,1.00
2018-12-30T05:55:01.950Z,4.40
2018-12-30T05:57:32.294Z,1.00
2018-12-30T06:00:02.657Z,1.00
2018-12-30T06:02:33.006Z,1.00
2018-12-30T06:05:03.365Z,1.00
2018-12-30T06:07:33.706Z,1.00
2018-12-30T06:10:04.352Z,1.00
2018-12-30T06:12:34.733Z,1.00
2018-12-30T06:15:05.287Z,1.00
2018-12-30T06:17:35.647Z,1.00
2018-12-30T06:20:06.207Z,1.00
2018-12-30T06:22:36.548Z,1.00
2018-12-30T06:25:06.888Z,1.00
2018-12-30T06:27:37.222Z,7.50
2018-12-30T06:30:07.667Z,1.00
2018-12-30T06:32:38.010Z,1.00
2018-12-30T06:35:08.359Z,1.00
2018-12-30T06:37:38.691Z,1.00
2018-12-30T06:40:11.398Z,1.00
2018-12-30T06:42:41.165Z,1.00
2018-12-30T06:45:11.934Z,1.00
2018-12-30T06:47:42.269Z,4.20
2018-12-30T06:50:12.627Z,11.40
2018-12-30T06:52:42.996Z,19.30
2018-12-30T06:55:13.337Z,16.60
2018-12-30T06:57:43.678Z,12.70
2018-12-30T07:00:14.094Z,4.40
2018-12-30T07:02:44.479Z,3.80
2018-12-30T07:05:14.919Z,1.00
2018-12-30T07:07:45.294Z,1.00
2018-12-30T07:10:15.618Z,1.00
2018-12-30T07:12:45.981Z,1.00
2018-12-30T07:15:16.375Z,1.00
2018-12-30T07:17:46.739Z,1.00
2018-12-30T07:20:17.095Z,1.00
2018-12-30T07:22:47.485Z,1.00
2018-12-30T07:25:17.884Z,1.00
2018-12-30T07:27:48.270Z,1.00
2018-12-30T07:30:18.753Z,1.00
2018-12-30T07:32:49.135Z,1.00
2018-12-30T07:35:19.478Z,1.00
2018-12-30T07:37:49.886Z,1.00
2018-12-30T07:40:20.212Z,1.00
2018-12-30T07:42:50.622Z,1.00
2018-12-30T07:45:20.986Z,1.00
2018-12-30T07:47:51.426Z,1.00
2018-12-30T07:50:21.770Z,1.00
2018-12-30T07:52:52.237Z,1.00
2018-12-30T07:55:22.578Z,1.00
2018-12-30T07:57:52.987Z,1.00
2018-12-30T08:00:23.369Z,1.00
2018-12-30T08:02:53.710Z,1.00
2018-12-30T08:05:24.149Z,1.00
2018-12-30T08:07:54.509Z,1.00
2018-12-30T08:10:24.941Z,1.00
2018-12-30T08:12:55.278Z,1.00
2018-12-30T08:15:25.625Z,1.00
2018-12-30T08:17:55.982Z,1.00
2018-12-30T08:20:26.338Z,1.00
2018-12-30T08:22:56.681Z,1.00
2018-12-30T08:25:27.070Z,1.00
2018-12-30T08:27:57.423Z,1.00
2018-12-30T08:30:27.787Z,1.00
2018-12-30T08:32:58.127Z,1.00
2018-12-30T08:35:28.565Z,1.00
2018-12-30T08:37:58.889Z,1.00
2018-12-30T08:40:29.287Z,1.00
2018-12-30T08:42:59.689Z,1.00
2018-12-30T08:45:30.073Z,1.00
2018-12-30T08:48:00.424Z,1.00
2018-12-30T08:50:30.762Z,1.00
2018-12-30T08:53:01.113Z,1.00
2018-12-30T08:55:31.574Z,1.00
2018-12-30T08:58:01.922Z,1.00
2018-12-30T09:00:32.312Z,1.00
2018-12-30T09:03:02.732Z,1.00
2018-12-30T09:05:33.106Z,1.00
2018-12-30T09:08:03.537Z,1.00
2018-12-30T09:10:33.904Z,1.00
2018-12-30T09:13:04.289Z,1.00
2018-12-30T09:15:34.650Z,1.00
2018-12-30T09:18:05.026Z,1.00
2018-12-30T09:20:35.402Z,1.00
2018-12-30T09:23:05.794Z,1.00
2018-12-30T09:25:36.285Z,1.00
2018-12-30T09:28:06.656Z,1.00
2018-12-30T09:30:36.990Z,1.00
2018-12-30T09:33:07.361Z,1.00
2018-12-30T09:35:37.725Z,1.00
2018-12-30T09:38:08.113Z,1.00
2018-12-30T09:40:38.574Z,1.00
2018-12-30T09:43:08.962Z,1.00
2018-12-30T09:45:39.426Z,1.00
2018-12-30T09:48:09.797Z,1.00
2018-12-30T09:50:40.206Z,1.00
2018-12-30T09:53:10.589Z,1.00
2018-12-30T09:55:40.949Z,1.00
2018-12-30T09:58:11.302Z,1.00
2018-12-30T10:00:41.669Z,1.00
2018-12-30T10:03:12.017Z,1.00
2018-12-30T10:05:42.378Z,1.00
2018-12-30T10:08:12.762Z,1.00
2018-12-30T10:10:43.138Z,1.00
2018-12-30T10:13:13.510Z,1.00
2018-12-30T10:15:43.937Z,1.00
2018-12-30T10:18:14.325Z,1.00
2018-12-30T10:20:44.778Z,1.00
2018-12-30T10:23:15.133Z,1.00
2018-12-30T10:25:45.494Z,1.00
2018-12-30T10:28:15.863Z,1.00
2018-12-30T10:30:46.637Z,1.00
2018-12-30T10:33:16.970Z,1.00
2018-12-30T10:35:47.339Z,1.00
2018-12-30T10:38:17.689Z,1.00
2018-12-30T10:40:48.050Z,1.00
2018-12-30T10:43:18.542Z,1.00
2018-12-30T10:45:48.891Z,1.00
2018-12-30T10:48:19.307Z,1.00
2018-12-30T10:50:49.649Z,1.00
2018-12-30T10:53:20.120Z,1.00
2018-12-30T10:55:50.465Z,1.00
2018-12-30T10:58:20.877Z,1.00
2018-12-30T11:00:51.269Z,1.00
2018-12-30T11:03:21.706Z,1.00
2018-12-30T11:05:52.098Z,1.00
2018-12-30T11:08:22.470Z,1.00
2018-12-30T11:10:52.819Z,1.00
2018-12-30T11:13:23.213Z,1.00
2018-12-30T11:15:53.613Z,1.00
2018-12-30T11:18:24.037Z,1.00
2018-12-30T11:20:54.434Z,1.00
2018-12-30T11:23:24.778Z,1.00
2018-12-30T11:25:55.150Z,1.00
2018-12-30T11:28:25.503Z,1.00
2018-12-30T11:30:55.929Z,1.00
2018-12-30T11:33:26.318Z,1.00
2018-12-30T11:35:56.650Z,1.00
2018-12-30T11:38:27.024Z,1.00
2018-12-30T11:40:57.407Z,1.00
2018-12-30T11:43:27.759Z,1.00
2018-12-30T11:45:58.118Z,1.00
2018-12-30T11:48:28.489Z,1.00
2018-12-30T11:50:58.846Z,1.00
2018-12-30T11:53:29.240Z,1.00
2018-12-30T11:55:59.617Z,1.00
2018-12-30T11:58:29.987Z,1.00
2018-12-30T12:01:00.358Z,1.00
2018-12-30T12:03:30.718Z,1.00
2018-12-30T12:06:01.123Z,1.00
2018-12-30T12:08:31.510Z,1.00
2018-12-30T12:11:01.877Z,1.00
2018-12-30T12:13:32.276Z,1.00
2018-12-30T12:16:02.637Z,1.00
2018-12-30T12:18:32.994Z,1.00
2018-12-30T12:21:03.366Z,1.00
2018-12-30T12:23:33.801Z,1.00
2018-12-30T12:26:04.165Z,1.00
2018-12-30T12:28:34.521Z,1.00
2018-12-30T12:31:04.890Z,1.00
2018-12-30T12:33:35.254Z,1.00
2018-12-30T12:36:05.709Z,1.00
2018-12-30T12:38:36.083Z,1.00
2018-12-30T12:41:06.493Z,1.00
2018-12-30T12:43:36.842Z,1.00
2018-12-30T12:46:07.198Z,1.00
2018-12-30T12:48:37.653Z,1.00
2018-12-30T12:51:08.080Z,1.00
2018-12-30T12:53:38.457Z,1.00
2018-12-30T12:56:09.091Z,1.00
2018-12-30T12:58:39.437Z,1.00
2018-12-30T13:01:09.841Z,1.00
2018-12-30T13:03:40.224Z,1.00
2018-12-30T13:06:10.617Z,1.00
2018-12-30T13:08:41.019Z,1.00
2018-12-30T13:11:11.378Z,1.00
2018-12-30T13:13:41.777Z,1.00
2018-12-30T13:16:12.113Z,1.00
2018-12-30T13:18:42.499Z,1.00
2018-12-30T13:21:12.890Z,1.00
2018-12-30T13:23:43.973Z,1.00
2018-12-30T13:26:14.341Z,1.00
2018-12-30T13:28:44.723Z,1.00
2018-12-30T13:31:15.082Z,1.00
2018-12-30T13:33:46.516Z,1.00
2018-12-30T13:36:18.033Z,1.00
2018-12-30T13:38:48.401Z,1.00
2018-12-30T13:41:18.778Z,1.00
2018-12-30T13:43:49.170Z,1.00
2018-12-30T13:46:19.603Z,1.00
2018-12-30T13:48:49.982Z,1.00
2018-12-30T13:51:20.383Z,1.00
2018-12-30T13:53:50.741Z,1.00
2018-12-30T13:56:21.098Z,1.00
2018-12-30T13:58:51.503Z,1.00
2018-12-30T14:01:21.879Z,1.00
2018-12-30T14:03:52.254Z,1.00
2018-12-30T14:06:22.657Z,1.00
2018-12-30T14:08:53.080Z,1.00
2018-12-30T14:11:24.717Z,1.00
2018-12-30T14:13:55.229Z,1.00
2018-12-30T14:16:25.647Z,1.00
2018-12-30T14:18:56.107Z,1.00
2018-12-30T14:21:26.513Z,1.00
2018-12-30T14:23:56.909Z,14.60
2018-12-30T14:26:27.306Z,18.70
2018-12-30T14:28:57.701Z,15.50
2018-12-30T14:31:28.087Z,25.10
2018-12-30T14:33:58.461Z,35.20
2018-12-30T14:36:28.864Z,25.10
2018-12-30T14:38:59.262Z,28.10
2018-12-30T14:41:29.642Z,11.50
2018-12-30T14:43:59.999Z,2.00
2018-12-30T14:46:34.826Z,8.20
2018-12-30T14:49:02.461Z,24.30
2018-12-30T14:51:32.847Z,30.20
2018-12-30T14:54:03.217Z,33.70
2018-12-30T14:56:33.634Z,39.20
2018-12-30T14:59:04.018Z,45.70
2018-12-30T15:01:34.384Z,48.30
2018-12-30T15:04:04.828Z,48.00
2018-12-30T15:06:35.228Z,40.30
2018-12-30T15:09:08.363Z,32.10
2018-12-30T15:11:38.745Z,39.50
2018-12-30T15:14:09.175Z,40.90
2018-12-30T15:16:39.546Z,44.10
2018-12-30T15:19:09.949Z,50.90
2018-12-30T15:21:40.394Z,59.20
2018-12-30T15:24:10.806Z,60.20
2018-12-30T15:26:41.175Z,51.50
2018-12-30T15:29:11.568Z,52.10
2018-12-30T15:31:41.949Z,49.70
2018-12-30T15:34:12.340Z,63.00
2018-12-30T15:36:42.757Z,56.90
2018-12-30T15:39:13.137Z,52.60
2018-12-30T15:41:43.534Z,57.50
2018-12-30T15:44:13.926Z,63.50
2018-12-30T15:46:44.336Z,66.50
2018-12-30T15:49:14.760Z,58.50
2018-12-30T15:51:45.113Z,49.20
2018-12-30T15:54:15.504Z,51.60
2018-12-30T15:56:46.105Z,60.00
2018-12-30T15:59:16.505Z,64.10
2018-12-30T16:01:46.921Z,70.70
2018-12-30T16:04:17.303Z,55.00
2018-12-30T16:06:47.690Z,55.70
2018-12-30T16:09:18.138Z,56.40
2018-12-30T16:11:48.548Z,57.20
2018-12-30T16:14:18.978Z,43.60
2018-12-30T16:16:49.487Z,43.80
2018-12-30T16:19:19.906Z,40.00
2018-12-30T16:21:50.292Z,36.60
2018-12-30T16:24:20.665Z,27.30
2018-12-30T16:26:51.014Z,29.10
2018-12-30T16:29:21.378Z,40.50
2018-12-30T16:31:51.746Z,30.00
2018-12-30T16:34:22.113Z,32.50
2018-12-30T16:36:52.489Z,54.10
2018-12-30T16:39:22.911Z,46.30
2018-12-30T16:41:53.282Z,37.60
2018-12-30T16:44:23.654Z,40.60
2018-12-30T16:46:54.061Z,34.20
2018-12-30T16:49:24.464Z,29.30
2018-12-30T16:51:55.462Z,49.20
2018-12-30T16:54:25.846Z,49.80
2018-12-30T16:56:56.270Z,54.00
2018-12-30T16:59:26.683Z,45.00
2018-12-30T17:01:57.190Z,43.80
2018-12-30T17:04:27.558Z,29.00
2018-12-30T17:06:57.959Z,21.40
2018-12-30T17:09:28.316Z,24.70
2018-12-30T17:11:58.799Z,24.40
2018-12-30T17:14:29.186Z,33.00
2018-12-30T17:16:59.609Z,26.10
2018-12-30T17:19:30.073Z,24.40
2018-12-30T17:22:00.442Z,22.00
2018-12-30T17:24:30.901Z,22.10
2018-12-30T17:27:01.263Z,18.10
2018-12-30T17:29:31.658Z,16.20
2018-12-30T17:32:02.202Z,14.60
2018-12-30T17:34:32.852Z,11.60
2018-12-30T17:37:03.220Z,4.40
2018-12-30T17:39:33.623Z,30.90
2018-12-30T17:42:04.018Z,27.30
2018-12-30T17:44:34.493Z,27.40
2018-12-30T17:47:04.881Z,25.70
2018-12-30T17:49:35.402Z,24.40
2018-12-30T17:52:05.773Z,22.10
2018-12-30T17:54:36.267Z,14.50
2018-12-30T17:57:06.718Z,10.10
2018-12-30T17:59:37.104Z,18.80
2018-12-30T18:02:07.500Z,14.80
2018-12-30T18:04:37.905Z,10.60
2018-12-30T18:07:08.306Z,10.70
2018-12-30T18:09:38.662Z,4.90
2018-12-30T18:12:09.105Z,1.00
2018-12-30T18:14:39.507Z,1.00
2018-12-30T18:17:09.886Z,1.00
2018-12-30T18:19:40.373Z,1.00
2018-12-30T18:22:11.411Z,7.60
2018-12-30T18:24:42.346Z,23.00
2018-12-30T18:27:12.846Z,46.50
2018-12-30T18:29:43.252Z,43.60
2018-12-30T18:32:13.660Z,44.40
2018-12-30T18:34:44.054Z,46.10
2018-12-30T18:37:14.461Z,42.80
2018-12-30T18:39:44.887Z,48.90
2018-12-30T18:42:15.404Z,46.50
2018-12-30T18:44:45.791Z,41.00
2018-12-30T18:47:16.220Z,35.60
2018-12-30T18:49:46.655Z,37.10
2018-12-30T18:52:17.094Z,30.20
2018-12-30T18:54:47.437Z,41.30
2018-12-30T18:57:17.882Z,39.10
2018-12-30T18:59:48.269Z,37.50
2018-12-30T19:02:18.694Z,43.20
2018-12-30T19:04:49.118Z,36.00
2018-12-30T19:07:19.544Z,23.90
2018-12-30T19:09:49.939Z,32.90
2018-12-30T19:12:20.318Z,28.20
2018-12-30T19:14:50.685Z,19.90
2018-12-30T19:17:21.071Z,14.30
2018-12-30T19:19:53.513Z,19.90
2018-12-30T19:22:23.922Z,27.80
2018-12-30T19:24:54.305Z,43.30
2018-12-30T19:27:24.698Z,40.70
2018-12-30T19:29:55.090Z,50.40
2018-12-30T19:32:25.494Z,50.80
2018-12-30T19:34:55.950Z,48.00
2018-12-30T19:37:26.344Z,54.30
2018-12-30T19:39:56.816Z,53.60
2018-12-30T19:42:27.241Z,59.80
2018-12-30T19:44:57.658Z,57.00
2018-12-30T19:47:28.073Z,69.70
2018-12-30T19:49:58.496Z,62.60
2018-12-30T19:52:28.890Z,66.80
2018-12-30T19:55:00.827Z,66.20
2018-12-30T19:57:31.186Z,60.70
2018-12-30T20:00:01.644Z,65.90
2018-12-30T20:02:32.075Z,69.90
2018-12-30T20:05:02.486Z,63.00
2018-12-30T20:07:32.904Z,47.50
2018-12-30T20:10:03.337Z,51.60
2018-12-30T20:12:33.729Z,51.30
2018-12-30T20:15:04.805Z,44.70
2018-12-30T20:17:35.247Z,57.50
2018-12-30T20:20:05.996Z,71.20
2018-12-30T20:22:36.582Z,68.10
2018-12-30T20:25:06.919Z,80.10
2018-12-30T20:27:37.333Z,85.80
2018-12-30T20:30:08.333Z,92.70
2018-12-30T20:32:38.891Z,92.20
2018-12-30T20:35:09.551Z,74.70
2018-12-30T20:37:40.009Z,70.40
2018-12-30T20:40:10.614Z,85.20
2018-12-30T20:42:41.090Z,72.70
2018-12-30T20:45:11.510Z,84.00
2018-12-30T20:47:41.925Z,80.00
2018-12-30T20:50:12.317Z,82.00
2018-12-30T20:52:42.727Z,90.30
2018-12-30T20:55:13.105Z,86.80
2018-12-30T20:57:43.567Z,82.30
2018-12-30T21:00:15.477Z,76.80
2018-12-30T21:02:46.057Z,64.30
2018-12-30T21:05:16.476Z,79.90
2018-12-30T21:07:46.912Z,77.40
2018-12-30T21:10:17.375Z,82.10
2018-12-30T21:12:47.787Z,85.30
2018-12-30T21:15:18.190Z,82.90
2018-12-30T21:17:48.602Z,84.40
2018-12-30T21:20:19.004Z,91.10
2018-12-30T21:22:49.408Z,92.40
2018-12-30T21:25:19.825Z,92.70
2018-12-30T21:27:50.238Z,74.60
2018-12-30T21:30:20.814Z,89.10
2018-12-30T21:32:51.207Z,87.60
2018-12-30T21:35:21.631Z,90.60
2018-12-30T21:37:52.097Z,85.20
2018-12-30T21:40:22.523Z,92.60
2018-12-30T21:42:52.937Z,95.90
2018-12-30T21:45:23.336Z,92.40
2018-12-30T21:47:53.789Z,90.60
2018-12-30T21:50:24.309Z,87.00
2018-12-30T21:52:54.744Z,86.60
2018-12-30T21:55:25.197Z,93.10
2018-12-30T21:57:55.583Z,94.50
2018-12-30T22:00:26.017Z,99.20
2018-12-30T22:02:56.410Z,99.90
2018-12-30T22:05:26.804Z,99.90
2018-12-30T22:07:57.199Z,99.90
2018-12-30T22:10:27.633Z,99.90
2018-12-30T22:12:58.969Z,99.90
2018-12-30T22:15:29.517Z,99.90
2018-12-30T22:18:00.035Z,96.00
2018-12-30T22:20:30.590Z,95.70
2018-12-30T22:23:01.022Z,99.90
2018-12-30T22:25:31.519Z,99.90
2018-12-30T22:28:01.945Z,96.60
2018-12-30T22:30:32.366Z,96.60
2018-12-30T22:33:02.793Z,96.10
2018-12-30T22:35:33.268Z,99.90
2018-12-30T22:38:03.694Z,98.90
2018-12-30T22:40:34.082Z,98.60
2018-12-30T22:43:05.157Z,99.90
2018-12-30T22:45:35.638Z,99.90
2018-12-30T22:48:06.136Z,96.60
2018-12-30T22:50:36.521Z,95.00
2018-12-30T22:53:06.954Z,93.90
2018-12-30T22:55:37.366Z,95.00
2018-12-30T22:58:07.778Z,95.10
2018-12-30T23:00:56.197Z,94.30
2018-12-30T23:03:26.623Z,91.40
2018-12-30T23:05:57.039Z,93.80
2018-12-30T23:08:27.465Z,94.80
2018-12-30T23:10:57.859Z,99.90
2018-12-30T23:13:28.375Z,99.90
2018-12-30T23:15:58.914Z,99.90
2018-12-30T23:18:29.352Z,99.90
2018-12-30T23:20:59.709Z,98.40
2018-12-30T23:23:30.110Z,98.90
2018-12-30T23:26:00.488Z,99.20
2018-12-30T23:28:30.977Z,99.90
2018-12-30T23:31:01.370Z,99.90
2018-12-30T23:33:31.810Z,99.90
2018-12-30T23:36:02.282Z,99.90
2018-12-30T23:38:32.709Z,99.90
2018-12-30T23:41:03.117Z,99.90
2018-12-30T23:43:33.516Z,99.90
2018-12-30T23:46:03.903Z,99.90
2018-12-30T23:48:34.343Z,99.90
2018-12-30T23:51:04.994Z,99.90
2018-12-30T23:53:35.641Z,99.90
2018-12-30T23:56:06.052Z,99.90
2018-12-30T23:58:36.493Z,99.90
